Time;durP1;ratioP1;P1;durP2;ratioP2;P2;SDS_P1;SDS_P2;PMS_P1;PMS_P2;Temp;Humidity;BMP_temperature;BMP_pressure;BME280_temperature;BME280_humidity;BME280_pressure;Samples;Min_cycle;Max_cycle;Signal;HPM_P1;HPM_P2
2022/07/25 00:01:27;;;;;;;12.95;7.18;;;;;;;18.58;68.13;99166.91;4837117;29;20519;-82
2022/07/25 00:03:53;;;;;;;13.40;7.90;;;;;;;18.24;68.35;99115.13;4846149;29;20056;-78
2022/07/25 00:06:19;;;;;;;12.30;8.50;;;;;;;18.34;68.39;99143.53;4841284;29;20129;-81
2022/07/25 00:08:45;;;;;;;11.75;8.00;;;;;;;18.42;68.63;99156.31;4845538;29;20069;-83
2022/07/25 00:11:12;;;;;;;13.57;7.40;;;;;;;18.18;68.55;99132.09;4843712;29;20065;-80
2022/07/25 00:13:38;;;;;;;14.68;7.68;;;;;;;18.33;68.56;99157.63;4834054;29;20061;-80
2022/07/25 00:16:04;;;;;;;12.07;8.15;;;;;;;18.23;68.77;99145.84;4834494;29;20376;-82
2022/07/25 00:18:30;;;;;;;14.55;8.73;;;;;;;18.25;68.84;99159.78;4831572;29;20050;-80
2022/07/25 00:20:57;;;;;;;15.02;8.15;;;;;;;18.21;68.83;99150.34;4834632;29;20054;-81
2022/07/25 00:23:24;;;;;;;17.05;8.30;;;;;;;18.12;69.09;99146.41;4834158;29;20038;-80
2022/07/25 00:25:52;;;;;;;15.10;7.82;;;;;;;18.03;69.16;99137.19;4820495;29;20526;-83
2022/07/25 00:28:18;;;;;;;16.25;8.13;;;;;;;17.93;69.21;99133.31;4834473;29;20125;-80
2022/07/25 00:30:45;;;;;;;16.73;9.00;;;;;;;18.16;69.43;99152.38;4837517;29;20533;-83
2022/07/25 00:33:11;;;;;;;17.98;8.30;;;;;;;18.17;69.73;99156.72;4806156;29;20046;-80
2022/07/25 00:35:37;;;;;;;21.08;9.85;;;;;;;18.11;69.70;99138.59;4807406;29;20379;-82
2022/07/25 00:38:04;;;;;;;12.15;8.10;;;;;;;18.13;69.50;99155.16;4833624;29;20046;-79
2022/07/25 00:40:30;;;;;;;13.85;8.10;;;;;;;18.06;69.65;99155.47;4832721;29;20308;-80
2022/07/25 00:42:56;;;;;;;11.32;7.85;;;;;;;17.83;69.92;99118.88;4820522;29;20397;-83
2022/07/25 00:45:22;;;;;;;13.88;7.80;;;;;;;17.99;69.72;99133.00;4831898;29;20042;-81
2022/07/25 00:47:48;;;;;;;16.52;8.15;;;;;;;17.97;69.97;99136.63;4837680;29;20050;-83
2022/07/25 00:50:14;;;;;;;14.50;8.75;;;;;;;18.01;70.04;99139.03;4835619;29;20046;-81
2022/07/25 00:52:40;;;;;;;17.92;10.05;;;;;;;17.92;70.24;99128.97;4833492;29;20122;-81
2022/07/25 00:55:07;;;;;;;13.38;10.25;;;;;;;17.93;70.21;99125.41;4848332;29;20040;-80
2022/07/25 00:57:33;;;;;;;20.25;10.15;;;;;;;17.94;70.54;99134.13;4842557;29;20210;-80
2022/07/25 00:59:59;;;;;;;19.27;10.00;;;;;;;17.92;70.71;99137.69;4837534;29;20046;-78
2022/07/25 01:02:26;;;;;;;14.18;10.35;;;;;;;17.94;70.73;99135.00;4842640;29;20101;-80
2022/07/25 01:04:53;;;;;;;16.73;10.32;;;;;;;17.94;70.68;99140.28;4835468;29;20404;-80
2022/07/25 01:07:20;;;;;;;17.73;10.35;;;;;;;17.86;70.88;99121.38;4834726;29;20055;-81
2022/07/25 01:09:47;;;;;;;18.55;11.77;;;;;;;17.91;70.88;99133.38;4847863;29;20053;-81
2022/07/25 01:12:13;;;;;;;16.05;9.02;;;;;;;17.89;70.83;99135.22;4833143;29;20049;-80
2022/07/25 01:14:40;;;;;;;11.50;8.70;;;;;;;17.89;70.90;99139.63;4819275;29;20050;-79
2022/07/25 01:17:06;;;;;;;16.75;9.30;;;;;;;17.85;70.94;99138.09;4831205;29;20045;-82
2022/07/25 01:19:32;;;;;;;15.80;8.88;;;;;;;17.78;71.14;99132.28;4832178;29;20093;-82
2022/07/25 01:21:59;;;;;;;13.98;9.27;;;;;;;17.73;71.19;99129.88;4819577;29;20046;-81
2022/07/25 01:24:25;;;;;;;16.70;8.98;;;;;;;17.73;71.22;99129.88;4831306;29;20463;-79
2022/07/25 01:26:51;;;;;;;14.02;9.40;;;;;;;17.67;71.55;99121.41;4834769;29;20043;-80
2022/07/25 01:29:17;;;;;;;16.58;8.45;;;;;;;17.48;71.26;99082.03;4831293;29;20502;-79
2022/07/25 01:31:44;;;;;;;14.68;8.35;;;;;;;17.76;71.31;99129.72;4828892;29;20038;-79
2022/07/25 01:34:10;;;;;;;12.07;8.10;;;;;;;17.80;71.14;99134.81;4831889;29;20046;-81
2022/07/25 01:36:36;;;;;;;17.60;8.77;;;;;;;17.78;71.25;99142.81;4831295;29;20121;-80
2022/07/25 01:39:02;;;;;;;14.75;9.30;;;;;;;17.81;71.40;99144.41;4832163;29;20046;-80
2022/07/25 01:41:28;;;;;;;13.98;9.20;;;;;;;17.77;71.46;99141.94;4832469;29;20041;-81
2022/07/25 01:43:55;;;;;;;20.08;9.13;;;;;;;17.72;71.53;99127.31;4822672;29;20054;-79
2022/07/25 01:46:21;;;;;;;14.60;9.25;;;;;;;17.84;71.55;99146.91;4837441;29;20042;-80
2022/07/25 01:48:47;;;;;;;15.73;8.68;;;;;;;17.82;71.56;99139.09;4834885;29;20053;-77
2022/07/25 01:51:14;;;;;;;27.17;9.23;;;;;;;17.86;71.63;99139.78;4834771;29;21582;-80
2022/07/25 01:53:40;;;;;;;19.08;8.68;;;;;;;17.82;71.52;99122.44;4823741;29;20056;-80
2022/07/25 01:56:07;;;;;;;15.40;9.05;;;;;;;18.02;71.49;99150.44;4838053;29;20042;-80
2022/07/25 01:58:34;;;;;;;14.27;8.52;;;;;;;17.96;71.55;99133.16;4835204;29;20073;-81
2022/07/25 02:01:00;;;;;;;13.82;8.57;;;;;;;18.03;71.48;99150.34;4822283;29;20152;-79
2022/07/25 02:03:28;;;;;;;12.40;8.50;;;;;;;17.89;71.46;99134.38;4819557;29;20479;-80
2022/07/25 02:06:05;;;;;;;15.05;8.65;;;;;;;18.05;71.65;99153.75;4813715;29;20182;-80
2022/07/25 02:08:31;;;;;;;14.82;8.85;;;;;;;18.10;71.57;99148.25;4832383;29;20133;-82
2022/07/25 02:10:58;;;;;;;15.65;8.43;;;;;;;18.06;71.46;99137.03;4829744;29;20619;-81
2022/07/25 02:13:26;;;;;;;13.63;9.15;;;;;;;18.14;71.46;99146.34;4833220;29;20048;-81
2022/07/25 02:15:53;;;;;;;18.75;9.38;;;;;;;18.25;71.66;99154.53;4831263;29;20504;-79
2022/07/25 02:18:19;;;;;;;26.55;12.00;;;;;;;18.26;71.35;99143.06;4832018;29;20490;-83
2022/07/25 02:20:45;;;;;;;23.25;11.88;;;;;;;18.36;71.64;99146.94;4834320;29;20566;-80
2022/07/25 02:23:11;;;;;;;25.75;11.80;;;;;;;18.36;71.42;99135.53;4832300;29;20521;-80
2022/07/25 02:25:38;;;;;;;24.08;11.18;;;;;;;18.48;71.55;99141.97;4817752;29;20070;-81
2022/07/25 02:28:04;;;;;;;29.73;11.27;;;;;;;18.55;71.31;99137.22;4818872;29;20073;-80
2022/07/25 02:30:30;;;;;;;17.83;11.32;;;;;;;18.64;71.26;99142.03;4827477;29;20117;-80
2022/07/25 02:32:56;;;;;;;22.83;11.10;;;;;;;18.66;71.01;99119.06;4855536;29;20050;-82
2022/07/25 02:35:22;;;;;;;26.08;11.38;;;;;;;18.73;71.17;99119.59;4835056;29;20050;-79
2022/07/25 02:37:49;;;;;;;20.35;10.30;;;;;;;18.81;71.47;99127.94;4834399;29;20138;-79
2022/07/25 02:40:15;;;;;;;22.27;10.40;;;;;;;18.88;71.05;99121.41;4831706;29;20070;-80
2022/07/25 02:42:41;;;;;;;21.73;9.98;;;;;;;18.93;71.01;99119.38;4834404;29;20050;-81
2022/07/25 02:45:07;;;;;;;27.85;10.55;;;;;;;19.08;70.68;99130.91;4830048;29;20396;-82
2022/07/25 02:47:34;;;;;;;30.08;10.02;;;;;;;19.14;70.45;99127.06;4816674;29;20119;-81
2022/07/25 02:50:03;;;;;;;21.13;11.05;;;;;;;19.21;70.69;99136.34;4834125;29;20086;-82
2022/07/25 02:52:30;;;;;;;25.75;9.75;;;;;;;19.17;70.55;99108.44;4834755;29;20057;-82
2022/07/25 02:54:56;;;;;;;20.80;10.23;;;;;;;19.41;70.23;99137.03;4813027;29;20042;-81
2022/07/25 02:57:22;;;;;;;23.38;9.65;;;;;;;19.44;70.15;99131.56;4832038;29;20098;-81
2022/07/25 02:59:49;;;;;;;17.20;9.05;;;;;;;19.59;70.12;99147.47;4829051;29;20045;-80
2022/07/25 03:02:15;;;;;;;22.95;10.50;;;;;;;19.39;70.06;99097.56;4826859;29;20753;-80
2022/07/25 03:04:41;;;;;;;25.20;10.82;;;;;;;19.64;70.19;99132.25;4831856;29;20054;-81
2022/07/25 03:07:07;;;;;;;21.73;9.68;;;;;;;19.81;69.97;99134.75;4830574;29;20057;-80
2022/07/25 03:09:33;;;;;;;24.98;10.05;;;;;;;19.73;70.06;99107.97;4818101;29;20046;-81
2022/07/25 03:11:59;;;;;;;19.90;10.20;;;;;;;19.93;69.94;99116.53;4819618;29;20070;-82
2022/07/25 03:14:26;;;;;;;18.95;9.73;;;;;;;20.06;69.38;99111.41;4831676;29;20070;-82
2022/07/25 03:16:52;;;;;;;22.70;10.70;;;;;;;20.29;69.50;99129.38;4827865;29;20048;-82
2022/07/25 03:19:18;;;;;;;18.70;10.15;;;;;;;20.38;69.27;99117.38;4835310;29;20079;-78
2022/07/25 03:21:45;;;;;;;14.85;9.25;;;;;;;20.54;68.92;99121.72;4844204;29;20152;-79
2022/07/25 03:24:11;;;;;;;28.52;16.70;;;;;;;20.68;68.68;99120.88;4850592;29;20038;-81
2022/07/25 03:26:37;;;;;;;20.20;9.85;;;;;;;20.64;68.30;99098.22;4833599;29;20072;-81
2022/07/25 03:29:07;;;;;;;21.70;11.43;;;;;;;20.96;68.49;99127.97;4843554;29;20079;-79
2022/07/25 03:31:33;;;;;;;19.38;10.10;;;;;;;21.12;67.86;99132.28;4851007;29;20050;-81
2022/07/25 03:34:00;;;;;;;18.27;9.30;;;;;;;21.11;67.77;99120.00;4849426;29;20054;-80
2022/07/25 03:36:26;;;;;;;14.43;9.23;;;;;;;21.35;67.92;99121.09;4853013;29;20038;-84
2022/07/25 03:38:55;;;;;;;15.77;9.38;;;;;;;21.44;67.15;99105.56;4860377;29;20028;-84
2022/07/25 03:41:21;;;;;;;14.13;8.55;;;;;;;21.63;67.00;99102.59;4842463;29;20073;-85
2022/07/25 03:43:47;;;;;;;13.43;8.48;;;;;;;21.99;66.70;99143.47;4846883;29;20046;-81
2022/07/25 03:46:14;;;;;;;13.25;7.78;;;;;;;21.78;66.46;99076.91;4822750;29;20046;-85
2022/07/25 03:48:40;;;;;;;14.65;7.93;;;;;;;21.97;65.61;99072.06;4837811;29;20145;-84
2022/07/25 03:51:07;;;;;;;13.43;7.22;;;;;;;22.38;65.22;99103.78;4836039;29;20064;-83
2022/07/25 03:54:00;;;;;;;16.90;7.45;;;;;;;22.69;64.97;99109.63;4838117;29;20133;-81
2022/07/25 03:56:20;;;;;;;10.25;6.82;;;;;;;22.73;64.05;99079.28;4837874;29;20050;-82
2022/07/25 03:58:46;;;;;;;8.88;6.00;;;;;;;23.20;63.35;99127.22;4848837;29;20114;-81
2022/07/25 04:01:13;;;;;;;12.35;6.65;;;;;;;23.31;62.44;99110.53;4854983;29;20090;-81
2022/07/25 04:03:41;;;;;;;9.95;6.15;;;;;;;23.55;61.79;99117.66;4849634;29;20113;-84
2022/07/25 04:06:08;;;;;;;8.68;6.38;;;;;;;23.73;61.05;99118.13;4819159;29;20052;-81
2022/07/25 04:08:34;;;;;;;10.68;5.72;;;;;;;23.90;60.38;99115.03;4855650;29;20030;-82
2022/07/25 04:11:03;;;;;;;10.27;6.13;;;;;;;23.85;59.79;99072.03;4845316;29;20052;-83
2022/07/25 04:13:29;;;;;;;10.93;6.00;;;;;;;24.22;58.76;99108.25;4838440;29;20030;-86
2022/07/25 04:15:56;;;;;;;9.93;5.47;;;;;;;24.43;58.44;99108.44;4820735;29;20046;-82
2022/07/25 04:18:22;;;;;;;8.27;5.70;;;;;;;24.55;58.27;99111.94;4835320;29;20057;-82
2022/07/25 04:20:48;;;;;;;8.73;5.85;;;;;;;24.58;57.55;99078.94;4836165;29;20422;-82
2022/07/25 04:23:17;;;;;;;12.05;5.82;;;;;;;24.74;56.79;99083.94;4835438;29;20048;-82
2022/07/25 04:25:43;;;;;;;9.52;5.57;;;;;;;24.85;56.15;99075.91;4836170;29;20046;-83
2022/07/25 04:28:10;;;;;;;10.88;6.30;;;;;;;25.20;55.98;99117.50;4834381;29;20046;-82
2022/07/25 04:30:37;;;;;;;8.05;5.65;;;;;;;25.16;55.65;99085.94;4838448;29;20050;-83
2022/07/25 04:33:03;;;;;;;6.85;5.45;;;;;;;25.44;55.06;99105.84;4838937;29;20174;-82
2022/07/25 04:35:30;;;;;;;6.57;5.20;;;;;;;25.55;54.48;99099.63;4838659;29;20122;-82
2022/07/25 04:37:56;;;;;;;10.35;5.85;;;;;;;25.68;54.20;99088.81;4834500;29;20154;-84
2022/07/25 04:40:22;;;;;;;10.57;5.32;;;;;;;25.77;53.26;99093.34;4839242;29;20057;-82
2022/07/25 04:42:52;;;;;;;8.35;5.45;;;;;;;25.92;53.31;99095.72;4842607;29;20128;-79
2022/07/25 04:45:18;;;;;;;8.98;5.15;;;;;;;26.23;53.25;99115.31;4837543;29;20054;-81
2022/07/25 04:47:44;;;;;;;9.32;5.90;;;;;;;26.37;52.74;99107.94;4832187;29;20052;-81
2022/07/25 04:50:11;;;;;;;6.22;5.30;;;;;;;26.54;51.80;99106.50;4835870;29;20123;-84
2022/07/25 04:52:37;;;;;;;8.23;5.47;;;;;;;26.61;51.49;99100.47;4808437;29;20128;-84
2022/07/25 04:55:04;;;;;;;7.90;5.80;;;;;;;26.45;51.24;99068.13;4831683;29;20081;-82
2022/07/25 04:57:30;;;;;;;7.72;5.22;;;;;;;26.77;50.95;99102.66;4817735;29;20041;-80
2022/07/25 04:59:57;;;;;;;5.65;5.03;;;;;;;26.84;50.88;99080.78;4839126;29;20050;-80
2022/07/25 05:02:26;;;;;;;9.93;4.97;;;;;;;26.98;50.48;99077.75;4826643;29;20042;-81
2022/07/25 05:04:52;;;;;;;6.13;5.53;;;;;;;27.20;49.78;99084.66;4819248;29;20081;-81
2022/07/25 05:07:18;;;;;;;12.50;5.50;;;;;;;27.40;49.59;99105.22;4832777;29;20514;-80
2022/07/25 05:09:44;;;;;;;8.95;5.32;;;;;;;27.34;49.34;99070.06;4832969;29;20082;-80
2022/07/25 05:12:10;;;;;;;6.38;5.35;;;;;;;27.64;49.03;99097.66;4832261;29;20042;-82
2022/07/25 05:14:37;;;;;;;6.57;5.18;;;;;;;27.86;48.71;99105.53;4813403;29;20053;-82
2022/07/25 05:17:03;;;;;;;7.07;5.70;;;;;;;27.93;48.44;99078.06;4837295;29;20045;-80
2022/07/25 05:19:30;;;;;;;8.90;5.55;;;;;;;28.13;47.66;99083.44;4813840;29;20060;-81
2022/07/25 05:21:56;;;;;;;6.13;4.93;;;;;;;28.30;47.58;99081.00;4832883;29;20046;-81
2022/07/25 05:24:22;;;;;;;9.57;5.50;;;;;;;28.34;46.72;99074.38;4830711;29;20046;-80
2022/07/25 05:26:49;;;;;;;7.97;5.40;;;;;;;28.69;46.48;99094.22;4832446;29;20048;-81
2022/07/25 05:29:15;;;;;;;7.20;5.13;;;;;;;28.81;46.07;99073.50;4832705;29;20141;-81
2022/07/25 05:31:42;;;;;;;5.40;4.90;;;;;;;29.37;45.45;99093.03;4833485;29;20537;-81
2022/07/25 05:34:08;;;;;;;9.90;5.05;;;;;;;29.80;44.70;99081.69;4831375;29;20077;-81
2022/07/25 05:36:34;;;;;;;7.18;5.00;;;;;;;30.06;44.13;99089.78;4833972;29;20101;-81
2022/07/25 05:39:01;;;;;;;6.60;5.05;;;;;;;30.16;43.32;99074.44;4838536;29;20054;-81
2022/07/25 05:41:27;;;;;;;8.20;5.22;;;;;;;30.29;42.61;99063.28;4832896;29;20128;-80
2022/07/25 05:43:53;;;;;;;7.68;4.75;;;;;;;30.44;42.57;99079.66;4847709;29;20077;-80
2022/07/25 05:46:20;;;;;;;6.00;4.80;;;;;;;30.90;42.36;99084.72;4845147;29;20050;-82
2022/07/25 05:48:46;;;;;;;7.65;5.20;;;;;;;31.97;42.01;99083.22;4815885;29;20073;-81
2022/07/25 05:51:12;;;;;;;6.65;5.05;;;;;;;33.71;39.24;99058.22;4834556;29;20048;-83
2022/07/25 05:53:38;;;;;;;8.98;5.40;;;;;;;35.58;36.52;99067.16;4831948;29;20064;-83
2022/07/25 05:56:05;;;;;;;8.70;5.00;;;;;;;37.01;34.07;99065.13;4837494;29;20046;-83
2022/07/25 05:58:35;;;;;;;6.75;5.03;;;;;;;38.33;31.86;99047.44;4836198;29;20062;-82
2022/07/25 06:01:02;;;;;;;6.85;4.53;;;;;;;39.55;29.97;99041.19;4835891;29;20038;-83
2022/07/25 06:03:28;;;;;;;9.93;4.78;;;;;;;40.69;28.64;99055.59;4832851;29;20052;-82
2022/07/25 06:05:55;;;;;;;6.85;4.78;;;;;;;41.40;27.08;99042.19;4831937;29;20049;-81
2022/07/25 06:08:22;;;;;;;7.10;5.10;;;;;;;42.23;25.92;99071.50;4817775;29;20160;-82
2022/07/25 06:10:48;;;;;;;6.70;4.65;;;;;;;42.92;24.66;99074.56;4837516;29;20092;-81
2022/07/25 06:13:15;;;;;;;6.55;4.60;;;;;;;43.53;23.60;99063.06;4844611;29;20042;-82
2022/07/25 06:15:41;;;;;;;7.47;5.18;;;;;;;44.01;22.47;99064.38;4849877;29;20042;-82
2022/07/25 06:18:07;;;;;;;8.57;4.88;;;;;;;44.52;22.08;99046.97;4837271;29;20070;-82
2022/07/25 06:20:33;;;;;;;7.05;4.40;;;;;;;44.96;21.38;99068.88;4846392;29;20156;-82
2022/07/25 06:23:02;;;;;;;7.45;5.00;;;;;;;45.55;20.01;99071.91;4833595;29;20428;-83
2022/07/25 06:25:28;;;;;;;7.07;4.75;;;;;;;45.57;19.69;99040.31;4849848;29;20544;-82
2022/07/25 06:27:54;;;;;;;10.57;5.07;;;;;;;46.14;19.49;99059.97;4851439;29;20059;-82
2022/07/25 06:30:20;;;;;;;7.47;4.75;;;;;;;46.73;18.77;99041.50;4851292;29;20061;-81
2022/07/25 06:32:49;;;;;;;13.32;5.88;;;;;;;47.49;17.88;99065.84;4853612;29;20075;-81
2022/07/25 06:35:16;;;;;;;8.75;5.10;;;;;;;47.89;17.64;99066.09;4851117;29;20050;-81
2022/07/25 06:37:42;;;;;;;15.43;6.95;;;;;;;48.28;17.28;99056.34;4841969;29;20076;-81
2022/07/25 06:40:09;;;;;;;7.88;4.93;;;;;;;48.94;16.69;99059.88;4826683;29;20056;-81
2022/07/25 06:42:41;;;;;;;5.63;4.88;;;;;;;49.61;15.89;99062.16;4835716;29;20515;-82
2022/07/25 06:45:09;;;;;;;5.18;4.72;;;;;;;48.42;15.98;99060.19;4836768;29;20398;-87
2022/07/25 06:47:41;;;;;;;6.97;5.00;;;;;;;46.81;17.02;99033.84;4816415;29;20508;-81
2022/07/25 06:50:13;;;;;;;10.85;4.75;;;;;;;47.13;17.18;99057.53;4819695;29;20080;-83
2022/07/25 06:52:39;;;;;;;9.25;5.60;;;;;;;47.47;16.76;99040.53;4820854;29;20061;-83
2022/07/25 06:55:17;;;;;;;5.30;4.80;;;;;;;46.29;17.48;99029.00;4833918;29;20042;-85
2022/07/25 06:57:53;;;;;;;6.47;5.03;;;;;;;46.73;17.00;99060.75;4821317;29;20053;-86
2022/07/25 07:00:44;;;;;;;5.90;4.50;;;;;;;47.23;16.96;99068.59;4830693;29;20667;-85
2022/07/25 07:03:12;;;;;;;7.60;5.05;;;;;;;48.22;15.76;99020.50;4832036;29;20058;-83
2022/07/25 07:05:51;;;;;;;8.98;5.40;;;;;;;49.21;15.17;99014.44;4814850;29;20065;-85
2022/07/25 07:08:36;;;;;;;7.07;5.38;;;;;;;50.41;14.87;99054.38;4796464;29;20053;-85
2022/07/25 07:11:03;;;;;;;9.23;5.82;;;;;;;51.21;13.79;99070.44;4805786;29;20490;-84
2022/07/25 07:13:30;;;;;;;6.40;5.65;;;;;;;52.05;13.48;99051.22;4821873;29;20053;-84
2022/07/25 07:15:59;;;;;;;;;;;;;;;52.23;13.41;99058.59;4835215;29;20056;-85
2022/07/25 07:22:11;;;;;;;9.57;6.03;;;;;;;53.18;12.32;99042.31;4895843;23;20459;-84
2022/07/25 07:25:28;;;;;;;;;;;;;;;;;;;;;
2022/07/25 07:28:22;;;;;;;9.07;5.28;;;;;;;53.41;11.84;99031.22;4819221;29;20053;-82
2022/07/25 07:31:17;;;;;;;7.78;5.60;;;;;;;52.78;11.44;99006.09;4819839;29;20137;-83
2022/07/25 07:33:43;;;;;;;7.07;5.72;;;;;;;50.35;13.29;99011.31;4823682;29;20046;-86
2022/07/25 07:36:09;;;;;;;9.10;5.85;;;;;;;48.12;14.03;99012.31;4805013;29;20096;-84
2022/07/25 07:38:35;;;;;;;9.60;6.18;;;;;;;47.17;15.38;99036.63;4834635;29;20053;-81
2022/07/25 07:41:01;;;;;;;5.90;5.30;;;;;;;48.31;14.68;99044.75;4819788;29;20046;-82
2022/07/25 07:43:30;;;;;;;8.30;5.13;;;;;;;49.26;13.79;99014.41;4820220;29;20039;-83
2022/07/25 07:46:00;;;;;;;5.22;4.63;;;;;;;48.47;14.20;99035.31;4824933;29;20082;-83
2022/07/25 07:48:28;;;;;;;7.57;5.00;;;;;;;46.65;15.51;99042.06;4816561;29;20031;-82
2022/07/25 07:50:54;;;;;;;9.43;4.80;;;;;;;46.70;15.63;99042.03;4836011;29;20046;-77
2022/07/25 07:55:42;;;;;;;5.65;4.60;;;;;;;48.15;14.82;99041.22;4830531;29;20068;-81
2022/07/25 07:56:14;;;;;;;5.93;4.80;;;;;;;46.83;14.69;99048.16;4826741;29;20579;-81
2022/07/25 07:58:41;;;;;;;6.15;5.00;;;;;;;45.33;16.26;99014.38;4823498;29;20095;-82
2022/07/25 08:01:07;;;;;;;5.68;5.15;;;;;;;44.42;17.33;99035.88;4819646;29;20050;-82
2022/07/25 08:03:33;;;;;;;8.52;4.63;;;;;;;43.63;18.22;99039.44;4808664;29;20458;-81
2022/07/25 08:05:59;;;;;;;5.35;4.40;;;;;;;44.71;17.75;99027.44;4825509;29;20133;-82
2022/07/25 08:08:25;;;;;;;7.43;4.50;;;;;;;45.43;17.42;99009.78;4819089;29;20510;-83
2022/07/25 08:10:52;;;;;;;6.65;4.10;;;;;;;47.51;15.60;99030.59;4820312;29;20054;-81
2022/07/25 08:13:19;;;;;;;5.93;5.00;;;;;;;48.18;14.75;99004.84;4817622;29;20039;-83
2022/07/25 08:15:50;;;;;;;5.68;4.82;;;;;;;48.61;14.65;99026.44;4805906;29;20042;-82
2022/07/25 08:18:17;;;;;;;8.38;4.63;;;;;;;49.58;14.10;99021.28;4802195;29;20042;-85
2022/07/25 08:20:48;;;;;;;5.75;4.97;;;;;;;50.22;13.69;99025.88;4818849;29;20066;-81
2022/07/25 08:23:14;;;;;;;6.40;5.00;;;;;;;51.01;12.50;99014.25;4816123;29;20057;-81
2022/07/25 08:25:41;;;;;;;5.72;5.20;;;;;;;51.27;12.92;99016.59;4820543;29;20106;-84
2022/07/25 08:28:08;;;;;;;7.97;5.50;;;;;;;51.58;12.40;99032.72;4802224;29;20038;-84
2022/07/25 08:30:36;;;;;;;6.18;5.57;;;;;;;51.28;12.02;99022.97;4810475;29;20051;-82
2022/07/25 08:33:05;;;;;;;8.27;5.75;;;;;;;51.81;11.67;99041.13;4828733;29;20050;-87
2022/07/25 08:35:32;;;;;;;7.18;5.97;;;;;;;52.32;11.44;99036.53;4825236;29;20038;-84
2022/07/25 08:38:00;;;;;;;5.72;5.32;;;;;;;52.93;11.42;99022.41;4824206;29;20050;-84
2022/07/25 08:40:28;;;;;;;6.47;5.05;;;;;;;53.53;11.64;99034.19;4824089;29;20073;-83
2022/07/25 08:42:55;;;;;;;5.68;5.15;;;;;;;54.04;11.17;99033.97;4816167;29;20047;-80
2022/07/25 08:45:22;;;;;;;5.70;4.93;;;;;;;54.52;11.06;99031.44;4817647;29;20042;-83
2022/07/25 08:47:50;;;;;;;7.65;6.18;;;;;;;53.73;10.61;99046.75;4829006;29;20042;-84
2022/07/25 08:50:18;;;;;;;9.32;6.32;;;;;;;52.77;11.64;99037.78;4812550;29;20046;-81
2022/07/25 08:52:46;;;;;;;8.90;5.72;;;;;;;52.24;11.62;99020.59;4823621;29;20034;-81
2022/07/25 08:55:18;;;;;;;7.32;6.63;;;;;;;52.06;12.12;99037.03;4821759;29;20080;-83
2022/07/25 08:57:47;;;;;;;12.63;6.90;;;;;;;52.12;11.45;99044.13;4819148;29;20128;-82
2022/07/25 09:00:20;;;;;;;7.33;6.63;;;;;;;51.80;12.11;99028.41;4809394;29;20053;-84
2022/07/25 09:02:59;;;;;;;9.77;5.97;;;;;;;50.49;12.31;99041.81;4805629;29;20042;-83
2022/07/25 09:05:29;;;;;;;7.85;6.20;;;;;;;48.47;13.92;99035.31;4813095;29;20046;-82
2022/07/25 09:07:56;;;;;;;8.52;6.03;;;;;;;46.87;14.73;99021.78;4825807;29;20091;-81
2022/07/25 09:10:25;;;;;;;6.45;5.75;;;;;;;47.75;14.57;99019.03;4826568;29;20541;-85
2022/07/25 09:12:57;;;;;;;6.05;5.53;;;;;;;48.65;14.02;99020.06;4824136;29;20034;-81
2022/07/25 09:15:37;;;;;;;6.93;5.60;;;;;;;49.72;13.19;99026.94;4804398;29;20333;-80
2022/07/25 09:18:07;;;;;;;5.45;4.97;;;;;;;50.10;12.97;99023.50;4825172;29;20053;-80
2022/07/25 09:20:49;;;;;;;6.88;5.53;;;;;;;51.50;12.00;99025.91;4825372;29;20089;-83
2022/07/25 09:23:27;;;;;;;6.57;5.97;;;;;;;51.59;12.67;99019.66;4827110;29;20046;-83
2022/07/25 09:26:03;;;;;;;9.23;6.05;;;;;;;49.31;13.49;98997.81;4832302;29;20035;-82
2022/07/25 09:28:43;;;;;;;9.55;6.57;;;;;;;48.20;14.73;99019.16;4822928;29;20144;-81
2022/07/25 09:31:11;;;;;;;5.70;5.30;;;;;;;49.02;14.53;98990.28;4826061;29;20445;-82
2022/07/25 09:33:50;;;;;;;6.53;5.63;;;;;;;50.77;13.36;98995.78;4825273;29;20054;-82
2022/07/25 09:36:19;;;;;;;;;;;;;;;52.21;12.30;99023.97;4827945;29;20470;-82
2022/07/25 09:39:03;;;;;;;5.75;5.28;;;;;;;52.76;12.05;99006.41;4824159;29;20011;-82
2022/07/25 09:41:36;;;;;;;7.18;6.50;;;;;;;51.51;12.99;99027.53;4816602;29;20422;-83
2022/07/25 09:44:03;;;;;;;6.82;6.10;;;;;;;49.44;13.86;99010.09;4826058;29;20070;-81
2022/07/25 09:46:31;;;;;;;7.20;6.47;;;;;;;49.73;14.00;98981.63;4824358;29;20085;-84
2022/07/25 09:48:59;;;;;;;8.38;6.10;;;;;;;50.59;13.07;98996.63;4824602;29;20047;-81
2022/07/25 09:51:28;;;;;;;6.55;5.80;;;;;;;49.24;13.93;99000.06;4810759;29;20050;-82
2022/07/25 09:53:54;;;;;;;9.75;6.18;;;;;;;47.66;14.39;99019.59;4825279;29;20042;-85
2022/07/25 09:56:20;;;;;;;6.85;5.97;;;;;;;47.79;15.18;98998.06;4826130;29;20046;-85
2022/07/25 09:58:47;;;;;;;6.40;5.78;;;;;;;49.23;14.46;98996.47;4808839;29;20046;-85
2022/07/25 10:01:19;;;;;;;5.90;5.38;;;;;;;50.28;13.64;99008.91;4823924;29;20056;-82
2022/07/25 10:04:05;;;;;;;6.47;5.88;;;;;;;51.10;12.65;99006.06;4798192;29;20451;-78
2022/07/25 10:07:06;;;;;;;6.88;6.32;;;;;;;51.56;11.98;99006.41;4821615;29;20042;-81
2022/07/25 10:09:32;;;;;;;6.38;5.75;;;;;;;51.26;12.40;99016.91;4835183;29;20617;-81
2022/07/25 10:12:07;;;;;;;6.55;5.65;;;;;;;51.37;12.42;98996.22;4834151;29;20050;-85
2022/07/25 10:14:38;;;;;;;6.18;5.68;;;;;;;51.94;12.24;98992.41;4827317;29;20026;-84
2022/07/25 10:17:05;;;;;;;5.97;5.47;;;;;;;52.09;12.03;98986.53;4828973;29;20050;-85
2022/07/25 10:19:49;;;;;;;6.05;5.55;;;;;;;51.64;12.39;98986.31;4826992;29;20089;-81
2022/07/25 10:22:15;;;;;;;5.45;4.95;;;;;;;50.16;13.03;98978.94;4827129;29;20046;-82
2022/07/25 10:24:50;;;;;;;6.05;5.53;;;;;;;48.12;13.95;98995.78;4814571;29;20026;-79
2022/07/25 10:27:22;;;;;;;5.57;5.10;;;;;;;48.23;14.58;98989.09;4828155;29;20046;-80
2022/07/25 10:29:53;;;;;;;7.15;5.78;;;;;;;48.58;14.00;98952.53;4839005;29;20042;-83
2022/07/25 10:32:24;;;;;;;7.35;5.70;;;;;;;48.39;14.06;98973.31;4815451;29;20050;-82
2022/07/25 10:34:59;;;;;;;5.95;5.45;;;;;;;48.21;14.02;98983.06;4815417;29;20045;-82
2022/07/25 10:37:28;;;;;;;6.28;5.22;;;;;;;46.96;14.49;98998.09;4822428;29;20043;-83
2022/07/25 10:40:01;;;;;;;7.78;5.38;;;;;;;45.48;15.93;98987.03;4784092;29;20047;-83
2022/07/25 10:42:35;;;;;;;5.47;4.97;;;;;;;43.71;17.46;98960.69;4802974;29;20054;-80
2022/07/25 10:45:08;;;;;;;6.60;5.60;;;;;;;42.77;17.99;98966.53;4832899;29;20140;-82
2022/07/25 10:47:41;;;;;;;6.00;5.40;;;;;;;41.63;19.24;98958.72;4820095;29;20456;-82
2022/07/25 10:50:10;;;;;;;6.38;5.25;;;;;;;40.86;19.88;99000.44;4835901;29;20094;-81
2022/07/25 10:52:44;;;;;;;6.35;5.30;;;;;;;39.93;20.93;98974.09;4831966;29;20054;-83
2022/07/25 10:55:22;;;;;;;7.05;5.15;;;;;;;39.64;21.67;98994.66;4806489;29;20073;-82
2022/07/25 10:58:05;;;;;;;7.78;5.18;;;;;;;39.02;22.48;98963.56;4803267;29;20195;-80
2022/07/25 11:00:32;;;;;;;6.13;5.63;;;;;;;38.83;22.45;98990.63;4826031;29;20559;-79
2022/07/25 11:03:00;;;;;;;7.03;5.40;;;;;;;38.54;23.08;98986.56;4830467;29;20062;-80
2022/07/25 11:05:28;;;;;;;7.53;5.10;;;;;;;38.35;23.36;98983.72;4833882;29;20050;-81
2022/07/25 11:07:55;;;;;;;6.50;5.10;;;;;;;38.01;24.15;98983.00;4845610;29;20026;-81
2022/07/25 11:10:28;;;;;;;8.40;5.30;;;;;;;37.75;23.92;98989.28;4839965;29;20050;-81
2022/07/25 11:12:57;;;;;;;7.60;5.13;;;;;;;37.23;24.54;98965.50;4824053;29;20089;-80
2022/07/25 11:15:23;;;;;;;6.25;4.70;;;;;;;36.96;25.21;98994.47;4844372;29;20044;-82
2022/07/25 11:17:51;;;;;;;8.68;5.15;;;;;;;36.36;25.40;98965.25;4850062;29;20054;-82
2022/07/25 11:20:20;;;;;;;6.78;5.28;;;;;;;35.96;26.52;98964.03;4849705;29;20058;-82
2022/07/25 11:22:52;;;;;;;7.07;5.22;;;;;;;35.89;26.52;98987.47;4849304;29;20050;-81
2022/07/25 11:25:23;;;;;;;6.13;5.32;;;;;;;35.41;27.18;98980.03;4847369;29;20027;-80
2022/07/25 11:27:58;;;;;;;8.48;5.47;;;;;;;35.18;27.69;98980.25;4858550;29;20045;-82
2022/07/25 11:30:27;;;;;;;7.53;5.88;;;;;;;34.92;28.28;98982.44;4843497;29;20050;-78
2022/07/25 11:33:02;;;;;;;7.78;5.22;;;;;;;34.92;28.18;98984.31;4843747;29;20053;-82
2022/07/25 11:35:32;;;;;;;6.00;5.38;;;;;;;34.86;28.46;98969.72;4844384;29;20149;-80
2022/07/25 11:38:04;;;;;;;6.17;5.57;;;;;;;34.65;28.78;98955.16;4823084;29;20074;-81
2022/07/25 11:40:31;;;;;;;7.05;6.07;;;;;;;34.42;28.93;98946.34;4817127;29;20153;-82
2022/07/25 11:42:58;;;;;;;6.47;5.82;;;;;;;34.28;29.66;98978.56;4811047;29;20506;-82